sensor_id;sensor_type;location;lat;lon;timestamp;P1;durP1;ratioP1;P2;durP2;ratioP2
75295;SDS011;64623;44.738;37.804;2023-11-21T00:00:59;5.13;;;3.78;;
75295;SDS011;64623;44.738;37.804;2023-11-21T00:02:06;5.55;;;3.97;;
75295;SDS011;64623;44.738;37.804;2023-11-21T00:03:09;4.97;;;3.72;;
75295;SDS011;64623;44.738;37.804;2023-11-21T00:04:13;5.63;;;4.10;;
75295;SDS011;64623;44.738;37.804;2023-11-21T00:05:17;6.80;;;4.38;;
75295;SDS011;64623;44.738;37.804;2023-11-21T00:06:20;5.47;;;4.20;;
75295;SDS011;64623;44.738;37.804;2023-11-21T00:07:23;4.97;;;3.20;;
75295;SDS011;64623;44.738;37.804;2023-11-21T00:08:27;5.80;;;3.88;;
75295;SDS011;64623;44.738;37.804;2023-11-21T00:09:30;5.53;;;4.20;;
75295;SDS011;64623;44.738;37.804;2023-11-21T00:10:34;5.43;;;3.92;;
75295;SDS011;64623;44.738;37.804;2023-11-21T00:11:37;6.15;;;3.58;;
75295;SDS011;64623;44.738;37.804;2023-11-21T00:12:40;5.80;;;3.90;;
75295;SDS011;64623;44.738;37.804;2023-11-21T00:13:44;5.80;;;4.82;;
75295;SDS011;64623;44.738;37.804;2023-11-21T00:14:48;6.18;;;4.15;;
75295;SDS011;64623;44.738;37.804;2023-11-21T00:15:51;5.22;;;4.40;;
75295;SDS011;64623;44.738;37.804;2023-11-21T00:16:54;4.60;;;3.50;;
75295;SDS011;64623;44.738;37.804;2023-11-21T00:17:57;5.82;;;4.72;;
75295;SDS011;64623;44.738;37.804;2023-11-21T00:19:00;4.97;;;3.30;;
75295;SDS011;64623;44.738;37.804;2023-11-21T00:20:03;5.90;;;3.50;;
75295;SDS011;64623;44.738;37.804;2023-11-21T00:21:09;5.90;;;3.65;;
75295;SDS011;64623;44.738;37.804;2023-11-21T00:22:13;4.57;;;3.92;;
75295;SDS011;64623;44.738;37.804;2023-11-21T00:23:16;6.45;;;4.28;;
75295;SDS011;64623;44.738;37.804;2023-11-21T00:24:19;5.00;;;3.72;;
75295;SDS011;64623;44.738;37.804;2023-11-21T00:25:22;5.05;;;3.72;;
75295;SDS011;64623;44.738;37.804;2023-11-21T00:26:25;5.80;;;4.15;;
75295;SDS011;64623;44.738;37.804;2023-11-21T00:27:36;6.40;;;4.57;;
75295;SDS011;64623;44.738;37.804;2023-11-21T00:28:39;4.95;;;3.40;;
75295;SDS011;64623;44.738;37.804;2023-11-21T00:29:43;7.70;;;4.43;;
75295;SDS011;64623;44.738;37.804;2023-11-21T00:30:46;8.02;;;4.85;;
75295;SDS011;64623;44.738;37.804;2023-11-21T00:31:49;5.93;;;4.57;;
75295;SDS011;64623;44.738;37.804;2023-11-21T00:32:53;7.22;;;4.85;;
75295;SDS011;64623;44.738;37.804;2023-11-21T00:33:56;6.18;;;5.13;;
75295;SDS011;64623;44.738;37.804;2023-11-21T00:34:59;8.70;;;4.63;;
75295;SDS011;64623;44.738;37.804;2023-11-21T00:36:04;5.88;;;4.20;;
75295;SDS011;64623;44.738;37.804;2023-11-21T00:37:11;7.22;;;5.53;;
75295;SDS011;64623;44.738;37.804;2023-11-21T00:38:14;6.90;;;4.53;;
75295;SDS011;64623;44.738;37.804;2023-11-21T00:39:17;8.30;;;4.78;;
75295;SDS011;64623;44.738;37.804;2023-11-21T00:40:20;7.15;;;4.30;;
75295;SDS011;64623;44.738;37.804;2023-11-21T00:41:25;6.65;;;4.22;;
75295;SDS011;64623;44.738;37.804;2023-11-21T00:42:30;6.57;;;4.90;;
75295;SDS011;64623;44.738;37.804;2023-11-21T00:43:36;7.47;;;4.47;;
75295;SDS011;64623;44.738;37.804;2023-11-21T00:44:39;7.68;;;4.78;;
75295;SDS011;64623;44.738;37.804;2023-11-21T00:45:42;7.03;;;5.10;;
75295;SDS011;64623;44.738;37.804;2023-11-21T00:46:45;7.20;;;4.82;;
75295;SDS011;64623;44.738;37.804;2023-11-21T00:47:49;8.85;;;5.75;;
75295;SDS011;64623;44.738;37.804;2023-11-21T00:48:51;8.68;;;5.22;;
75295;SDS011;64623;44.738;37.804;2023-11-21T00:49:57;8.20;;;5.28;;
75295;SDS011;64623;44.738;37.804;2023-11-21T00:51:00;7.75;;;4.85;;
75295;SDS011;64623;44.738;37.804;2023-11-21T00:52:03;7.78;;;5.30;;
75295;SDS011;64623;44.738;37.804;2023-11-21T00:53:06;7.85;;;4.78;;
75295;SDS011;64623;44.738;37.804;2023-11-21T00:54:13;8.45;;;4.97;;
75295;SDS011;64623;44.738;37.804;2023-11-21T00:55:16;8.75;;;5.47;;
75295;SDS011;64623;44.738;37.804;2023-11-21T00:56:19;7.65;;;5.68;;
75295;SDS011;64623;44.738;37.804;2023-11-21T00:57:22;10.30;;;5.80;;
75295;SDS011;64623;44.738;37.804;2023-11-21T00:58:25;8.65;;;5.85;;
75295;SDS011;64623;44.738;37.804;2023-11-21T00:59:29;8.68;;;6.65;;
75295;SDS011;64623;44.738;37.804;2023-11-21T01:00:33;8.65;;;5.45;;
75295;SDS011;64623;44.738;37.804;2023-11-21T01:01:36;11.55;;;6.68;;
75295;SDS011;64623;44.738;37.804;2023-11-21T01:02:40;9.00;;;6.35;;
75295;SDS011;64623;44.738;37.804;2023-11-21T01:03:44;7.88;;;5.45;;
75295;SDS011;64623;44.738;37.804;2023-11-21T01:04:48;9.38;;;6.00;;
75295;SDS011;64623;44.738;37.804;2023-11-21T01:05:51;9.60;;;7.00;;
75295;SDS011;64623;44.738;37.804;2023-11-21T01:06:55;9.70;;;6.32;;
75295;SDS011;64623;44.738;37.804;2023-11-21T01:07:58;10.73;;;7.25;;
75295;SDS011;64623;44.738;37.804;2023-11-21T01:09:02;11.25;;;6.97;;
75295;SDS011;64623;44.738;37.804;2023-11-21T01:10:10;9.30;;;6.63;;
75295;SDS011;64623;44.738;37.804;2023-11-21T01:11:13;8.55;;;6.38;;
75295;SDS011;64623;44.738;37.804;2023-11-21T01:12:17;11.13;;;8.27;;
75295;SDS011;64623;44.738;37.804;2023-11-21T01:13:21;9.55;;;6.32;;
75295;SDS011;64623;44.738;37.804;2023-11-21T01:14:24;10.88;;;5.93;;
75295;SDS011;64623;44.738;37.804;2023-11-21T01:15:29;10.75;;;7.20;;
75295;SDS011;64623;44.738;37.804;2023-11-21T01:16:32;10.23;;;7.25;;
75295;SDS011;64623;44.738;37.804;2023-11-21T01:17:35;10.80;;;6.95;;
75295;SDS011;64623;44.738;37.804;2023-11-21T01:18:38;9.93;;;6.60;;
75295;SDS011;64623;44.738;37.804;2023-11-21T01:19:41;11.00;;;6.78;;
75295;SDS011;64623;44.738;37.804;2023-11-21T01:20:47;11.57;;;6.95;;
75295;SDS011;64623;44.738;37.804;2023-11-21T01:21:50;10.13;;;6.95;;
75295;SDS011;64623;44.738;37.804;2023-11-21T01:22:54;9.27;;;6.13;;
75295;SDS011;64623;44.738;37.804;2023-11-21T01:23:57;8.45;;;5.57;;
75295;SDS011;64623;44.738;37.804;2023-11-21T01:25:00;8.95;;;6.10;;
75295;SDS011;64623;44.738;37.804;2023-11-21T01:26:06;9.45;;;6.53;;
75295;SDS011;64623;44.738;37.804;2023-11-21T01:27:11;10.57;;;6.53;;
75295;SDS011;64623;44.738;37.804;2023-11-21T01:28:14;11.10;;;6.70;;
75295;SDS011;64623;44.738;37.804;2023-11-21T01:29:17;10.55;;;7.07;;
75295;SDS011;64623;44.738;37.804;2023-11-21T01:30:20;10.30;;;7.22;;
75295;SDS011;64623;44.738;37.804;2023-11-21T01:31:25;10.45;;;5.82;;
75295;SDS011;64623;44.738;37.804;2023-11-21T01:32:31;8.50;;;5.63;;
75295;SDS011;64623;44.738;37.804;2023-11-21T01:33:34;8.40;;;6.00;;
75295;SDS011;64623;44.738;37.804;2023-11-21T01:34:37;10.35;;;6.38;;
75295;SDS011;64623;44.738;37.804;2023-11-21T01:35:41;9.38;;;7.15;;
75295;SDS011;64623;44.738;37.804;2023-11-21T01:36:45;9.93;;;6.80;;
75295;SDS011;64623;44.738;37.804;2023-11-21T01:37:49;8.95;;;6.18;;
75295;SDS011;64623;44.738;37.804;2023-11-21T01:38:53;8.82;;;5.60;;
75295;SDS011;64623;44.738;37.804;2023-11-21T01:39:57;8.60;;;5.10;;
75295;SDS011;64623;44.738;37.804;2023-11-21T01:41:01;8.45;;;6.18;;
75295;SDS011;64623;44.738;37.804;2023-11-21T01:42:05;8.98;;;5.95;;
75295;SDS011;64623;44.738;37.804;2023-11-21T01:43:10;10.98;;;5.70;;
75295;SDS011;64623;44.738;37.804;2023-11-21T01:44:13;9.45;;;5.95;;
75295;SDS011;64623;44.738;37.804;2023-11-21T01:45:16;8.40;;;5.80;;
75295;SDS011;64623;44.738;37.804;2023-11-21T01:46:19;7.60;;;5.95;;
75295;SDS011;64623;44.738;37.804;2023-11-21T01:47:23;7.30;;;5.28;;
75295;SDS011;64623;44.738;37.804;2023-11-21T01:48:26;8.27;;;5.72;;
75295;SDS011;64623;44.738;37.804;2023-11-21T01:49:33;8.18;;;5.50;;
75295;SDS011;64623;44.738;37.804;2023-11-21T01:50:37;7.57;;;5.53;;
75295;SDS011;64623;44.738;37.804;2023-11-21T01:51:41;7.30;;;5.15;;
75295;SDS011;64623;44.738;37.804;2023-11-21T01:52:46;7.55;;;5.18;;
75295;SDS011;64623;44.738;37.804;2023-11-21T01:53:51;9.23;;;5.20;;
75295;SDS011;64623;44.738;37.804;2023-11-21T01:54:55;8.85;;;5.47;;
75295;SDS011;64623;44.738;37.804;2023-11-21T01:55:58;8.57;;;5.20;;
75295;SDS011;64623;44.738;37.804;2023-11-21T01:57:02;8.63;;;5.15;;
75295;SDS011;64623;44.738;37.804;2023-11-21T01:58:09;7.97;;;5.15;;
75295;SDS011;64623;44.738;37.804;2023-11-21T01:59:20;7.80;;;5.35;;
75295;SDS011;64623;44.738;37.804;2023-11-21T02:00:24;7.07;;;4.72;;
75295;SDS011;64623;44.738;37.804;2023-11-21T02:01:30;7.28;;;4.90;;
75295;SDS011;64623;44.738;37.804;2023-11-21T02:02:34;8.25;;;5.75;;
75295;SDS011;64623;44.738;37.804;2023-11-21T02:03:37;8.85;;;5.00;;
75295;SDS011;64623;44.738;37.804;2023-11-21T02:04:42;8.45;;;5.05;;
75295;SDS011;64623;44.738;37.804;2023-11-21T02:05:45;8.50;;;4.53;;
75295;SDS011;64623;44.738;37.804;2023-11-21T02:06:48;6.75;;;4.72;;
75295;SDS011;64623;44.738;37.804;2023-11-21T02:07:55;6.90;;;4.82;;
75295;SDS011;64623;44.738;37.804;2023-11-21T02:08:58;7.07;;;5.00;;
75295;SDS011;64623;44.738;37.804;2023-11-21T02:10:02;6.97;;;5.03;;
75295;SDS011;64623;44.738;37.804;2023-11-21T02:11:07;6.88;;;4.20;;
75295;SDS011;64623;44.738;37.804;2023-11-21T02:12:10;8.00;;;5.20;;
75295;SDS011;64623;44.738;37.804;2023-11-21T02:13:14;8.45;;;5.47;;
75295;SDS011;64623;44.738;37.804;2023-11-21T02:14:18;9.40;;;5.78;;
75295;SDS011;64623;44.738;37.804;2023-11-21T02:15:24;9.25;;;5.80;;
75295;SDS011;64623;44.738;37.804;2023-11-21T02:16:31;7.05;;;4.53;;
75295;SDS011;64623;44.738;37.804;2023-11-21T02:17:36;8.20;;;6.28;;
75295;SDS011;64623;44.738;37.804;2023-11-21T02:18:39;10.82;;;4.85;;
75295;SDS011;64623;44.738;37.804;2023-11-21T02:19:42;9.15;;;6.38;;
75295;SDS011;64623;44.738;37.804;2023-11-21T02:21:05;9.73;;;5.88;;
75295;SDS011;64623;44.738;37.804;2023-11-21T02:22:08;9.48;;;5.30;;
75295;SDS011;64623;44.738;37.804;2023-11-21T02:23:13;8.55;;;5.35;;
75295;SDS011;64623;44.738;37.804;2023-11-21T02:24:20;9.13;;;5.80;;
75295;SDS011;64623;44.738;37.804;2023-11-21T02:25:32;8.60;;;5.70;;
75295;SDS011;64623;44.738;37.804;2023-11-21T02:26:36;8.93;;;6.07;;
75295;SDS011;64623;44.738;37.804;2023-11-21T02:27:39;9.88;;;5.72;;
75295;SDS011;64623;44.738;37.804;2023-11-21T02:28:41;8.98;;;6.18;;
75295;SDS011;64623;44.738;37.804;2023-11-21T02:29:45;9.05;;;5.93;;
75295;SDS011;64623;44.738;37.804;2023-11-21T02:30:48;10.52;;;5.75;;
75295;SDS011;64623;44.738;37.804;2023-11-21T02:31:57;9.30;;;5.70;;
75295;SDS011;64623;44.738;37.804;2023-11-21T02:33:02;8.43;;;6.30;;
75295;SDS011;64623;44.738;37.804;2023-11-21T02:34:05;8.77;;;5.85;;
75295;SDS011;64623;44.738;37.804;2023-11-21T02:35:09;11.27;;;6.63;;
75295;SDS011;64623;44.738;37.804;2023-11-21T02:36:12;10.27;;;7.03;;
75295;SDS011;64623;44.738;37.804;2023-11-21T02:37:15;9.98;;;6.07;;
75295;SDS011;64623;44.738;37.804;2023-11-21T02:38:18;9.55;;;6.13;;
75295;SDS011;64623;44.738;37.804;2023-11-21T02:39:21;9.45;;;5.97;;
75295;SDS011;64623;44.738;37.804;2023-11-21T02:40:27;9.13;;;5.75;;
75295;SDS011;64623;44.738;37.804;2023-11-21T02:41:30;11.73;;;6.97;;
75295;SDS011;64623;44.738;37.804;2023-11-21T02:42:33;10.02;;;6.35;;
75295;SDS011;64623;44.738;37.804;2023-11-21T02:43:36;12.43;;;7.90;;
75295;SDS011;64623;44.738;37.804;2023-11-21T02:44:41;10.80;;;7.72;;
75295;SDS011;64623;44.738;37.804;2023-11-21T02:45:44;11.10;;;7.18;;
75295;SDS011;64623;44.738;37.804;2023-11-21T02:46:47;11.75;;;7.40;;
75295;SDS011;64623;44.738;37.804;2023-11-21T02:47:50;10.95;;;6.97;;
75295;SDS011;64623;44.738;37.804;2023-11-21T02:48:55;9.70;;;6.85;;
75295;SDS011;64623;44.738;37.804;2023-11-21T02:50:00;9.77;;;6.18;;
75295;SDS011;64623;44.738;37.804;2023-11-21T02:51:04;11.18;;;5.97;;
75295;SDS011;64623;44.738;37.804;2023-11-21T02:52:07;9.82;;;5.20;;
75295;SDS011;64623;44.738;37.804;2023-11-21T02:53:10;11.07;;;7.68;;
75295;SDS011;64623;44.738;37.804;2023-11-21T02:54:13;9.52;;;6.05;;
75295;SDS011;64623;44.738;37.804;2023-11-21T02:55:17;8.98;;;5.65;;
75295;SDS011;64623;44.738;37.804;2023-11-21T02:56:21;9.27;;;5.47;;
75295;SDS011;64623;44.738;37.804;2023-11-21T02:57:24;10.50;;;6.65;;
75295;SDS011;64623;44.738;37.804;2023-11-21T02:58:27;8.55;;;6.03;;
75295;SDS011;64623;44.738;37.804;2023-11-21T02:59:30;9.48;;;6.35;;
75295;SDS011;64623;44.738;37.804;2023-11-21T03:00:33;8.80;;;5.15;;
75295;SDS011;64623;44.738;37.804;2023-11-21T03:01:36;7.97;;;5.22;;
75295;SDS011;64623;44.738;37.804;2023-11-21T03:02:39;10.23;;;6.88;;
75295;SDS011;64623;44.738;37.804;2023-11-21T03:03:42;8.25;;;5.82;;
75295;SDS011;64623;44.738;37.804;2023-11-21T03:04:45;9.77;;;5.93;;
75295;SDS011;64623;44.738;37.804;2023-11-21T03:05:50;10.15;;;7.00;;
75295;SDS011;64623;44.738;37.804;2023-11-21T03:06:53;9.45;;;5.93;;
75295;SDS011;64623;44.738;37.804;2023-11-21T03:07:56;9.90;;;6.78;;
75295;SDS011;64623;44.738;37.804;2023-11-21T03:09:00;9.80;;;6.28;;
75295;SDS011;64623;44.738;37.804;2023-11-21T03:10:03;8.93;;;6.25;;
75295;SDS011;64623;44.738;37.804;2023-11-21T03:11:07;8.77;;;5.97;;
75295;SDS011;64623;44.738;37.804;2023-11-21T03:12:10;10.70;;;6.40;;
75295;SDS011;64623;44.738;37.804;2023-11-21T03:13:14;10.68;;;6.40;;
75295;SDS011;64623;44.738;37.804;2023-11-21T03:14:17;10.48;;;5.70;;
75295;SDS011;64623;44.738;37.804;2023-11-21T03:15:20;10.50;;;7.75;;
75295;SDS011;64623;44.738;37.804;2023-11-21T03:16:23;9.63;;;6.40;;
75295;SDS011;64623;44.738;37.804;2023-11-21T03:17:26;10.57;;;7.30;;
75295;SDS011;64623;44.738;37.804;2023-11-21T03:18:29;9.98;;;6.03;;
75295;SDS011;64623;44.738;37.804;2023-11-21T03:19:32;11.38;;;6.18;;
75295;SDS011;64623;44.738;37.804;2023-11-21T03:20:35;11.63;;;6.72;;
75295;SDS011;64623;44.738;37.804;2023-11-21T03:21:38;12.73;;;6.72;;
75295;SDS011;64623;44.738;37.804;2023-11-21T03:22:41;12.15;;;6.68;;
75295;SDS011;64623;44.738;37.804;2023-11-21T03:23:44;11.82;;;7.22;;
75295;SDS011;64623;44.738;37.804;2023-11-21T03:24:47;12.15;;;7.78;;
75295;SDS011;64623;44.738;37.804;2023-11-21T03:25:51;11.18;;;7.15;;
75295;SDS011;64623;44.738;37.804;2023-11-21T03:27:03;11.40;;;6.63;;
75295;SDS011;64623;44.738;37.804;2023-11-21T03:28:07;8.32;;;5.72;;
75295;SDS011;64623;44.738;37.804;2023-11-21T03:29:10;10.18;;;5.95;;
75295;SDS011;64623;44.738;37.804;2023-11-21T03:30:14;8.95;;;5.50;;
75295;SDS011;64623;44.738;37.804;2023-11-21T03:31:17;9.27;;;6.13;;
75295;SDS011;64623;44.738;37.804;2023-11-21T03:32:21;9.68;;;6.13;;
75295;SDS011;64623;44.738;37.804;2023-11-21T03:33:24;9.48;;;6.15;;
75295;SDS011;64623;44.738;37.804;2023-11-21T03:34:27;9.00;;;5.57;;
75295;SDS011;64623;44.738;37.804;2023-11-21T03:35:30;9.95;;;5.60;;
75295;SDS011;64623;44.738;37.804;2023-11-21T03:36:33;9.57;;;6.30;;
75295;SDS011;64623;44.738;37.804;2023-11-21T03:37:36;8.35;;;5.22;;
75295;SDS011;64623;44.738;37.804;2023-11-21T03:38:43;7.50;;;5.03;;
75295;SDS011;64623;44.738;37.804;2023-11-21T03:39:46;8.32;;;5.40;;
75295;SDS011;64623;44.738;37.804;2023-11-21T03:40:49;9.00;;;5.30;;
75295;SDS011;64623;44.738;37.804;2023-11-21T03:41:53;8.60;;;5.18;;
75295;SDS011;64623;44.738;37.804;2023-11-21T03:42:57;7.32;;;5.38;;
75295;SDS011;64623;44.738;37.804;2023-11-21T03:44:00;8.43;;;5.15;;
75295;SDS011;64623;44.738;37.804;2023-11-21T03:45:03;9.30;;;5.07;;
75295;SDS011;64623;44.738;37.804;2023-11-21T03:46:07;8.27;;;5.25;;
75295;SDS011;64623;44.738;37.804;2023-11-21T03:47:11;10.15;;;5.93;;
75295;SDS011;64623;44.738;37.804;2023-11-21T03:48:14;8.88;;;5.40;;
75295;SDS011;64623;44.738;37.804;2023-11-21T03:49:17;9.85;;;6.28;;
75295;SDS011;64623;44.738;37.804;2023-11-21T03:50:20;7.22;;;5.20;;
75295;SDS011;64623;44.738;37.804;2023-11-21T03:51:25;8.52;;;5.50;;
75295;SDS011;64623;44.738;37.804;2023-11-21T03:52:28;8.13;;;4.68;;
75295;SDS011;64623;44.738;37.804;2023-11-21T03:53:31;10.10;;;5.32;;
75295;SDS011;64623;44.738;37.804;2023-11-21T03:54:34;9.35;;;5.80;;
75295;SDS011;64623;44.738;37.804;2023-11-21T03:55:38;7.68;;;5.05;;
75295;SDS011;64623;44.738;37.804;2023-11-21T03:56:41;9.98;;;5.82;;
75295;SDS011;64623;44.738;37.804;2023-11-21T03:57:43;8.25;;;5.00;;
75295;SDS011;64623;44.738;37.804;2023-11-21T03:58:46;7.95;;;5.43;;
75295;SDS011;64623;44.738;37.804;2023-11-21T03:59:49;8.80;;;5.68;;
75295;SDS011;64623;44.738;37.804;2023-11-21T04:00:52;8.80;;;5.78;;
75295;SDS011;64623;44.738;37.804;2023-11-21T04:01:56;8.93;;;5.28;;
75295;SDS011;64623;44.738;37.804;2023-11-21T04:02:59;8.10;;;4.85;;
75295;SDS011;64623;44.738;37.804;2023-11-21T04:04:02;9.07;;;5.72;;
75295;SDS011;64623;44.738;37.804;2023-11-21T04:05:05;8.77;;;4.97;;
75295;SDS011;64623;44.738;37.804;2023-11-21T04:06:09;7.60;;;5.32;;
75295;SDS011;64623;44.738;37.804;2023-11-21T04:07:12;8.55;;;5.60;;
75295;SDS011;64623;44.738;37.804;2023-11-21T04:08:15;8.48;;;5.60;;
75295;SDS011;64623;44.738;37.804;2023-11-21T04:09:18;8.50;;;5.50;;
75295;SDS011;64623;44.738;37.804;2023-11-21T04:10:21;9.05;;;4.97;;
75295;SDS011;64623;44.738;37.804;2023-11-21T04:11:24;8.48;;;4.82;;
75295;SDS011;64623;44.738;37.804;2023-11-21T04:12:27;9.30;;;5.63;;
75295;SDS011;64623;44.738;37.804;2023-11-21T04:13:30;9.35;;;5.20;;
75295;SDS011;64623;44.738;37.804;2023-11-21T04:14:33;9.50;;;5.43;;
75295;SDS011;64623;44.738;37.804;2023-11-21T04:15:35;8.93;;;5.57;;
75295;SDS011;64623;44.738;37.804;2023-11-21T04:16:38;8.80;;;5.13;;
75295;SDS011;64623;44.738;37.804;2023-11-21T04:17:41;9.02;;;5.72;;
75295;SDS011;64623;44.738;37.804;2023-11-21T04:18:44;8.32;;;5.57;;
75295;SDS011;64623;44.738;37.804;2023-11-21T04:19:47;10.55;;;6.38;;
75295;SDS011;64623;44.738;37.804;2023-11-21T04:20:50;8.25;;;5.13;;
75295;SDS011;64623;44.738;37.804;2023-11-21T04:21:53;8.55;;;4.95;;
75295;SDS011;64623;44.738;37.804;2023-11-21T04:22:55;9.50;;;6.00;;
75295;SDS011;64623;44.738;37.804;2023-11-21T04:23:58;8.05;;;5.40;;
75295;SDS011;64623;44.738;37.804;2023-11-21T04:25:01;8.75;;;5.93;;
75295;SDS011;64623;44.738;37.804;2023-11-21T04:26:04;9.48;;;5.70;;
75295;SDS011;64623;44.738;37.804;2023-11-21T04:27:07;8.63;;;5.55;;
75295;SDS011;64623;44.738;37.804;2023-11-21T04:28:10;11.13;;;6.05;;
75295;SDS011;64623;44.738;37.804;2023-11-21T04:29:13;9.50;;;6.55;;
75295;SDS011;64623;44.738;37.804;2023-11-21T04:30:15;10.52;;;6.32;;
75295;SDS011;64623;44.738;37.804;2023-11-21T04:31:18;12.77;;;6.60;;
75295;SDS011;64623;44.738;37.804;2023-11-21T04:32:21;11.30;;;6.65;;
75295;SDS011;64623;44.738;37.804;2023-11-21T04:33:24;11.43;;;6.85;;
75295;SDS011;64623;44.738;37.804;2023-11-21T04:34:28;10.50;;;6.45;;
75295;SDS011;64623;44.738;37.804;2023-11-21T04:35:34;12.80;;;7.13;;
75295;SDS011;64623;44.738;37.804;2023-11-21T04:36:37;11.68;;;7.38;;
75295;SDS011;64623;44.738;37.804;2023-11-21T04:37:40;13.52;;;7.70;;
75295;SDS011;64623;44.738;37.804;2023-11-21T04:38:43;13.38;;;8.35;;
75295;SDS011;64623;44.738;37.804;2023-11-21T04:39:46;12.23;;;7.72;;
75295;SDS011;64623;44.738;37.804;2023-11-21T04:40:49;13.50;;;7.85;;
75295;SDS011;64623;44.738;37.804;2023-11-21T04:41:51;10.90;;;6.95;;
75295;SDS011;64623;44.738;37.804;2023-11-21T04:42:54;12.00;;;7.50;;
75295;SDS011;64623;44.738;37.804;2023-11-21T04:43:59;11.40;;;7.22;;
75295;SDS011;64623;44.738;37.804;2023-11-21T04:45:05;12.77;;;7.75;;
75295;SDS011;64623;44.738;37.804;2023-11-21T04:46:13;11.93;;;7.35;;
75295;SDS011;64623;44.738;37.804;2023-11-21T04:47:16;11.75;;;6.63;;
75295;SDS011;64623;44.738;37.804;2023-11-21T04:48:21;12.05;;;6.85;;
75295;SDS011;64623;44.738;37.804;2023-11-21T04:49:24;12.25;;;7.35;;
75295;SDS011;64623;44.738;37.804;2023-11-21T04:50:27;11.52;;;7.28;;
75295;SDS011;64623;44.738;37.804;2023-11-21T04:51:29;10.68;;;6.75;;
75295;SDS011;64623;44.738;37.804;2023-11-21T04:52:34;10.85;;;6.70;;
75295;SDS011;64623;44.738;37.804;2023-11-21T04:53:37;10.95;;;7.00;;
75295;SDS011;64623;44.738;37.804;2023-11-21T04:54:39;10.68;;;6.65;;
75295;SDS011;64623;44.738;37.804;2023-11-21T04:55:43;13.70;;;8.18;;
75295;SDS011;64623;44.738;37.804;2023-11-21T04:56:46;10.82;;;6.53;;
75295;SDS011;64623;44.738;37.804;2023-11-21T04:57:48;10.93;;;7.30;;
75295;SDS011;64623;44.738;37.804;2023-11-21T04:58:51;11.52;;;7.43;;
75295;SDS011;64623;44.738;37.804;2023-11-21T04:59:55;13.18;;;7.40;;
75295;SDS011;64623;44.738;37.804;2023-11-21T05:00:58;11.05;;;7.15;;
75295;SDS011;64623;44.738;37.804;2023-11-21T05:02:01;12.70;;;6.97;;
75295;SDS011;64623;44.738;37.804;2023-11-21T05:03:04;11.75;;;7.32;;
75295;SDS011;64623;44.738;37.804;2023-11-21T05:04:09;9.00;;;5.88;;
75295;SDS011;64623;44.738;37.804;2023-11-21T05:05:12;12.25;;;6.38;;
75295;SDS011;64623;44.738;37.804;2023-11-21T05:06:15;10.02;;;6.68;;
75295;SDS011;64623;44.738;37.804;2023-11-21T05:07:18;9.85;;;7.28;;
75295;SDS011;64623;44.738;37.804;2023-11-21T05:08:20;11.18;;;7.20;;
75295;SDS011;64623;44.738;37.804;2023-11-21T05:09:24;12.38;;;6.88;;
75295;SDS011;64623;44.738;37.804;2023-11-21T05:10:27;10.00;;;6.70;;
75295;SDS011;64623;44.738;37.804;2023-11-21T05:11:31;9.98;;;6.07;;
75295;SDS011;64623;44.738;37.804;2023-11-21T05:12:34;9.63;;;5.55;;
75295;SDS011;64623;44.738;37.804;2023-11-21T05:13:40;9.77;;;6.03;;
75295;SDS011;64623;44.738;37.804;2023-11-21T05:14:43;10.70;;;6.05;;
75295;SDS011;64623;44.738;37.804;2023-11-21T05:15:46;11.45;;;5.90;;
75295;SDS011;64623;44.738;37.804;2023-11-21T05:16:48;9.80;;;6.32;;
75295;SDS011;64623;44.738;37.804;2023-11-21T05:17:53;10.20;;;7.00;;
75295;SDS011;64623;44.738;37.804;2023-11-21T05:18:56;10.68;;;6.90;;
75295;SDS011;64623;44.738;37.804;2023-11-21T05:20:03;10.73;;;6.43;;
75295;SDS011;64623;44.738;37.804;2023-11-21T05:21:07;9.75;;;6.88;;
75295;SDS011;64623;44.738;37.804;2023-11-21T05:22:10;10.10;;;6.22;;
75295;SDS011;64623;44.738;37.804;2023-11-21T05:23:14;11.93;;;7.30;;
75295;SDS011;64623;44.738;37.804;2023-11-21T05:24:17;11.55;;;6.90;;
75295;SDS011;64623;44.738;37.804;2023-11-21T05:25:19;10.25;;;6.03;;
75295;SDS011;64623;44.738;37.804;2023-11-21T05:26:22;8.95;;;5.93;;
75295;SDS011;64623;44.738;37.804;2023-11-21T05:27:25;10.02;;;6.65;;
75295;SDS011;64623;44.738;37.804;2023-11-21T05:28:28;9.68;;;5.57;;
75295;SDS011;64623;44.738;37.804;2023-11-21T05:29:30;9.30;;;5.82;;
75295;SDS011;64623;44.738;37.804;2023-11-21T05:30:33;10.93;;;6.22;;
75295;SDS011;64623;44.738;37.804;2023-11-21T05:31:36;9.98;;;6.72;;
75295;SDS011;64623;44.738;37.804;2023-11-21T05:32:40;11.98;;;7.38;;
75295;SDS011;64623;44.738;37.804;2023-11-21T05:33:46;10.38;;;6.43;;
75295;SDS011;64623;44.738;37.804;2023-11-21T05:34:49;10.60;;;7.88;;
75295;SDS011;64623;44.738;37.804;2023-11-21T05:35:52;9.68;;;6.18;;
75295;SDS011;64623;44.738;37.804;2023-11-21T05:36:55;9.60;;;6.72;;
75295;SDS011;64623;44.738;37.804;2023-11-21T05:38:00;9.38;;;7.35;;
75295;SDS011;64623;44.738;37.804;2023-11-21T05:39:03;10.43;;;6.30;;
75295;SDS011;64623;44.738;37.804;2023-11-21T05:40:07;11.30;;;7.20;;
75295;SDS011;64623;44.738;37.804;2023-11-21T05:41:10;10.63;;;6.80;;
75295;SDS011;64623;44.738;37.804;2023-11-21T05:42:15;12.10;;;7.00;;
75295;SDS011;64623;44.738;37.804;2023-11-21T05:43:19;11.32;;;6.85;;
75295;SDS011;64623;44.738;37.804;2023-11-21T05:44:21;11.70;;;7.22;;
75295;SDS011;64623;44.738;37.804;2023-11-21T05:45:25;10.95;;;6.57;;
75295;SDS011;64623;44.738;37.804;2023-11-21T05:46:28;10.57;;;6.82;;
75295;SDS011;64623;44.738;37.804;2023-11-21T05:47:31;10.25;;;5.90;;
75295;SDS011;64623;44.738;37.804;2023-11-21T05:48:34;10.60;;;6.68;;
75295;SDS011;64623;44.738;37.804;2023-11-21T05:49:39;12.80;;;7.40;;
75295;SDS011;64623;44.738;37.804;2023-11-21T05:50:42;13.18;;;8.10;;
75295;SDS011;64623;44.738;37.804;2023-11-21T05:51:44;9.05;;;5.80;;
75295;SDS011;64623;44.738;37.804;2023-11-21T05:52:47;11.85;;;6.60;;
75295;SDS011;64623;44.738;37.804;2023-11-21T05:53:50;12.55;;;8.73;;
75295;SDS011;64623;44.738;37.804;2023-11-21T05:54:53;12.15;;;7.47;;
75295;SDS011;64623;44.738;37.804;2023-11-21T05:55:56;12.70;;;7.50;;
75295;SDS011;64623;44.738;37.804;2023-11-21T05:56:59;11.05;;;7.88;;
75295;SDS011;64623;44.738;37.804;2023-11-21T05:58:02;13.77;;;7.70;;
75295;SDS011;64623;44.738;37.804;2023-11-21T05:59:05;11.07;;;6.88;;
75295;SDS011;64623;44.738;37.804;2023-11-21T06:00:09;13.60;;;7.50;;
75295;SDS011;64623;44.738;37.804;2023-11-21T06:01:34;10.77;;;6.95;;
75295;SDS011;64623;44.738;37.804;2023-11-21T06:02:40;10.05;;;6.32;;
75295;SDS011;64623;44.738;37.804;2023-11-21T06:03:44;11.50;;;6.53;;
75295;SDS011;64623;44.738;37.804;2023-11-21T06:04:47;9.18;;;5.68;;
75295;SDS011;64623;44.738;37.804;2023-11-21T06:05:50;9.60;;;6.47;;
75295;SDS011;64623;44.738;37.804;2023-11-21T06:06:53;14.18;;;8.05;;
75295;SDS011;64623;44.738;37.804;2023-11-21T06:07:56;10.93;;;6.82;;
75295;SDS011;64623;44.738;37.804;2023-11-21T06:09:03;9.85;;;6.70;;
75295;SDS011;64623;44.738;37.804;2023-11-21T06:10:08;9.32;;;6.35;;
75295;SDS011;64623;44.738;37.804;2023-11-21T06:11:12;8.93;;;6.20;;
75295;SDS011;64623;44.738;37.804;2023-11-21T06:12:16;9.88;;;5.95;;
75295;SDS011;64623;44.738;37.804;2023-11-21T06:13:18;9.60;;;5.90;;
75295;SDS011;64623;44.738;37.804;2023-11-21T06:14:26;10.27;;;5.53;;
75295;SDS011;64623;44.738;37.804;2023-11-21T06:15:29;9.35;;;5.95;;
75295;SDS011;64623;44.738;37.804;2023-11-21T06:16:32;9.85;;;6.30;;
75295;SDS011;64623;44.738;37.804;2023-11-21T06:17:35;11.52;;;8.35;;